DRK300 VQPR-VGHS
Flight info
| Callsign | DRK300 |
|---|---|
| Flight time | 0h 49m |
| Altitude | 35000 |
| Route | PRO R598 SDP W3 DAC |
| Aircraft | A319/M-SDE3FGHIRWY/LB1 |
Departure
| Time | 2026-05-09 06:23 |
|---|---|
| Airport | Paro International Airport (VQPR) |
Arrival
| Time | 2026-05-09 07:12 |
|---|---|
| Airport | Hazrat Shahjalal International Airport (VGHS) |
| Time | Latitude | Longitude | Altitude | Speed | Heading |
|---|---|---|---|---|---|
| 2026-05-09 06:01 | 27.40597 | 89.42122 | 7355 ft | 0 kts | 240° |
| 2026-05-09 06:13 | 27.40600 | 89.42126 | 7355 ft | 3 kts | 241° |
| 2026-05-09 06:14 | 27.40610 | 89.42154 | 7357 ft | 4 kts | 259° |
| 2026-05-09 06:14 | 27.40609 | 89.42182 | 7358 ft | 4 kts | 310° |
| 2026-05-09 06:14 | 27.40604 | 89.42189 | 7356 ft | 0 kts | 329° |
| 2026-05-09 06:18 | 27.40609 | 89.42186 | 7358 ft | 4 kts | 329° |
| 2026-05-09 06:18 | 27.40634 | 89.42169 | 7357 ft | 4 kts | 330° |
| 2026-05-09 06:18 | 27.40654 | 89.42157 | 7356 ft | 4 kts | 331° |
| 2026-05-09 06:18 | 27.40691 | 89.42134 | 7358 ft | 6 kts | 330° |
| 2026-05-09 06:19 | 27.40727 | 89.42111 | 7359 ft | 6 kts | 330° |
| 2026-05-09 06:19 | 27.40759 | 89.42090 | 7360 ft | 6 kts | 330° |
| 2026-05-09 06:19 | 27.40802 | 89.42068 | 7361 ft | 6 kts | 0° |
| 2026-05-09 06:19 | 27.40829 | 89.42096 | 7362 ft | 6 kts | 62° |
| 2026-05-09 06:20 | 27.40860 | 89.42125 | 7363 ft | 6 kts | 1° |
| 2026-05-09 06:20 | 27.40915 | 89.42095 | 7364 ft | 11 kts | 330° |
| 2026-05-09 06:20 | 27.40976 | 89.42057 | 7366 ft | 9 kts | 330° |
| 2026-05-09 06:20 | 27.41028 | 89.42024 | 7368 ft | 8 kts | 330° |
| 2026-05-09 06:21 | 27.41076 | 89.41993 | 7369 ft | 8 kts | 330° |
| 2026-05-09 06:21 | 27.41123 | 89.41964 | 7370 ft | 8 kts | 330° |
| 2026-05-09 06:21 | 27.41160 | 89.41929 | 7371 ft | 6 kts | 305° |
| 2026-05-09 06:21 | 27.41186 | 89.41896 | 7372 ft | 5 kts | 321° |
| 2026-05-09 06:22 | 27.41207 | 89.41907 | 7373 ft | 2 kts | 58° |
| 2026-05-09 06:22 | 27.41191 | 89.41920 | 7372 ft | 5 kts | 148° |
| 2026-05-09 06:22 | 27.41149 | 89.41946 | 7370 ft | 10 kts | 151° |
| 2026-05-09 06:22 | 27.40983 | 89.42051 | 7367 ft | 60 kts | 150° |
| 2026-05-09 06:23 | 27.40413 | 89.42414 | 7346 ft | 128 kts | 150° |
| 2026-05-09 06:23 | 27.39450 | 89.43023 | 7357 ft | 181 kts | 151° |
| 2026-05-09 06:23 | 27.38420 | 89.43756 | 8137 ft | 174 kts | 138° |
| 2026-05-09 06:23 | 27.37746 | 89.44857 | 8927 ft | 168 kts | 120° |
| 2026-05-09 06:24 | 27.37154 | 89.45983 | 9695 ft | 164 kts | 128° |
| 2026-05-09 06:24 | 27.36277 | 89.46793 | 10296 ft | 168 kts | 148° |
| 2026-05-09 06:24 | 27.35306 | 89.47521 | 10863 ft | 168 kts | 146° |
| 2026-05-09 06:24 | 27.34324 | 89.48233 | 11414 ft | 168 kts | 148° |
| 2026-05-09 06:25 | 27.33324 | 89.48916 | 11900 ft | 170 kts | 149° |
| 2026-05-09 06:25 | 27.32385 | 89.49742 | 12341 ft | 176 kts | 126° |
| 2026-05-09 06:25 | 27.31758 | 89.50915 | 12914 ft | 172 kts | 120° |
| 2026-05-09 06:25 | 27.31064 | 89.52037 | 13257 ft | 185 kts | 143° |
| 2026-05-09 06:26 | 27.29802 | 89.52451 | 13470 ft | 202 kts | 188° |
| 2026-05-09 06:26 | 27.28405 | 89.51997 | 13821 ft | 217 kts | 194° |
| 2026-05-09 06:26 | 27.26837 | 89.51945 | 14055 ft | 238 kts | 169° |
| 2026-05-09 06:26 | 27.25192 | 89.52613 | 14218 ft | 265 kts | 156° |
| 2026-05-09 06:27 | 27.23420 | 89.53433 | 14609 ft | 286 kts | 159° |
| 2026-05-09 06:27 | 27.21483 | 89.54271 | 14862 ft | 311 kts | 160° |
| 2026-05-09 06:27 | 27.19408 | 89.55129 | 15173 ft | 333 kts | 161° |
| 2026-05-09 06:27 | 27.17135 | 89.56056 | 15491 ft | 354 kts | 161° |
| 2026-05-09 06:28 | 27.14803 | 89.57024 | 15843 ft | 370 kts | 160° |
| 2026-05-09 06:28 | 27.12370 | 89.58050 | 16520 ft | 375 kts | 160° |
| 2026-05-09 06:28 | 27.09915 | 89.59098 | 17163 ft | 380 kts | 160° |
| 2026-05-09 06:28 | 27.07427 | 89.60167 | 17821 ft | 385 kts | 161° |
| 2026-05-09 06:29 | 27.04909 | 89.61253 | 18494 ft | 390 kts | 161° |
| 2026-05-09 06:29 | 27.02362 | 89.62351 | 19106 ft | 394 kts | 161° |
| 2026-05-09 06:29 | 26.99778 | 89.63463 | 19713 ft | 399 kts | 161° |
| 2026-05-09 06:29 | 26.97180 | 89.64577 | 20319 ft | 402 kts | 161° |
| 2026-05-09 06:30 | 26.94549 | 89.65701 | 20922 ft | 406 kts | 162° |
| 2026-05-09 06:30 | 26.91891 | 89.66833 | 21516 ft | 410 kts | 162° |
| 2026-05-09 06:30 | 26.89211 | 89.67971 | 22101 ft | 414 kts | 162° |
| 2026-05-09 06:30 | 26.86505 | 89.69121 | 22596 ft | 417 kts | 162° |
| 2026-05-09 06:31 | 26.83780 | 89.70279 | 23122 ft | 422 kts | 162° |
| 2026-05-09 06:31 | 26.81024 | 89.71448 | 23621 ft | 425 kts | 163° |
| 2026-05-09 06:31 | 26.78209 | 89.72458 | 24031 ft | 424 kts | 171° |
| 2026-05-09 06:31 | 26.75298 | 89.72864 | 24482 ft | 421 kts | 183° |
| 2026-05-09 06:32 | 26.72385 | 89.72638 | 24897 ft | 417 kts | 194° |
| 2026-05-09 06:32 | 26.69602 | 89.71792 | 25351 ft | 414 kts | 205° |
| 2026-05-09 06:32 | 26.67064 | 89.70401 | 25808 ft | 411 kts | 214° |
| 2026-05-09 06:33 | 26.62141 | 89.67015 | 26747 ft | 414 kts | 214° |
| 2026-05-09 06:33 | 26.59709 | 89.65349 | 27203 ft | 416 kts | 214° |
| 2026-05-09 06:33 | 26.57229 | 89.63654 | 27659 ft | 418 kts | 214° |
| 2026-05-09 06:34 | 26.52252 | 89.60262 | 28548 ft | 421 kts | 214° |
| 2026-05-09 06:34 | 26.49743 | 89.58550 | 28982 ft | 422 kts | 214° |
| 2026-05-09 06:34 | 26.47230 | 89.56835 | 29416 ft | 424 kts | 214° |
| 2026-05-09 06:34 | 26.44709 | 89.55116 | 29846 ft | 425 kts | 215° |
| 2026-05-09 06:35 | 26.42182 | 89.53394 | 30215 ft | 426 kts | 214° |
| 2026-05-09 06:35 | 26.39653 | 89.51675 | 30573 ft | 427 kts | 214° |
| 2026-05-09 06:35 | 26.37109 | 89.49948 | 31040 ft | 424 kts | 214° |
| 2026-05-09 06:35 | 26.34601 | 89.48248 | 31590 ft | 420 kts | 215° |
| 2026-05-09 06:36 | 26.32240 | 89.46388 | 32127 ft | 413 kts | 223° |
| 2026-05-09 06:36 | 26.30074 | 89.44314 | 32682 ft | 409 kts | 223° |
| 2026-05-09 06:36 | 26.27926 | 89.42257 | 33249 ft | 404 kts | 223° |
| 2026-05-09 06:36 | 26.25803 | 89.40227 | 33813 ft | 400 kts | 223° |
| 2026-05-09 06:37 | 26.23698 | 89.38216 | 34297 ft | 397 kts | 223° |
| 2026-05-09 06:37 | 26.21604 | 89.36220 | 34721 ft | 395 kts | 223° |
| 2026-05-09 06:37 | 26.19517 | 89.34233 | 34879 ft | 394 kts | 223° |
| 2026-05-09 06:37 | 26.17439 | 89.32256 | 34919 ft | 392 kts | 223° |
| 2026-05-09 06:38 | 26.13331 | 89.28359 | 34921 ft | 390 kts | 223° |
| 2026-05-09 06:38 | 26.09198 | 89.24439 | 34921 ft | 390 kts | 223° |
| 2026-05-09 06:39 | 26.05161 | 89.20413 | 34926 ft | 390 kts | 225° |
| 2026-05-09 06:39 | 26.01210 | 89.16284 | 34921 ft | 389 kts | 225° |
| 2026-05-09 06:40 | 25.97259 | 89.12173 | 34925 ft | 390 kts | 225° |
| 2026-05-09 06:40 | 25.93262 | 89.08092 | 34926 ft | 390 kts | 225° |
| 2026-05-09 06:41 | 25.91258 | 89.06051 | 34671 ft | 391 kts | 225° |
| 2026-05-09 06:41 | 25.89256 | 89.04013 | 34329 ft | 390 kts | 224° |
| 2026-05-09 06:41 | 25.87250 | 89.01974 | 33997 ft | 391 kts | 224° |
| 2026-05-09 06:41 | 25.85243 | 88.99930 | 33636 ft | 392 kts | 224° |
| 2026-05-09 06:42 | 25.83227 | 88.97888 | 33246 ft | 395 kts | 223° |
| 2026-05-09 06:42 | 25.81011 | 88.96126 | 32861 ft | 401 kts | 213° |
| 2026-05-09 06:42 | 25.78461 | 88.94819 | 32483 ft | 409 kts | 204° |
| 2026-05-09 06:42 | 25.75654 | 88.94076 | 32110 ft | 420 kts | 193° |
| 2026-05-09 06:43 | 25.72653 | 88.93956 | 31733 ft | 433 kts | 182° |
| 2026-05-09 06:43 | 25.69646 | 88.94513 | 31374 ft | 447 kts | 171° |
| 2026-05-09 06:43 | 25.66708 | 88.95764 | 31020 ft | 458 kts | 162° |
| 2026-05-09 06:43 | 25.63818 | 88.97213 | 30669 ft | 461 kts | 162° |
| 2026-05-09 06:44 | 25.60896 | 88.98680 | 30322 ft | 464 kts | 162° |
| 2026-05-09 06:44 | 25.57948 | 89.00153 | 29979 ft | 466 kts | 162° |
| 2026-05-09 06:44 | 25.54983 | 89.01633 | 29568 ft | 467 kts | 162° |
| 2026-05-09 06:44 | 25.52019 | 89.03108 | 29166 ft | 466 kts | 162° |
| 2026-05-09 06:45 | 25.49076 | 89.04571 | 28888 ft | 463 kts | 162° |
| 2026-05-09 06:45 | 25.46131 | 89.06032 | 28923 ft | 463 kts | 162° |
| 2026-05-09 06:45 | 25.40236 | 89.08947 | 28920 ft | 463 kts | 162° |
| 2026-05-09 06:46 | 25.34357 | 89.11854 | 28922 ft | 463 kts | 162° |
| 2026-05-09 06:46 | 25.28470 | 89.14766 | 28843 ft | 463 kts | 162° |
| 2026-05-09 06:47 | 25.25531 | 89.16223 | 28570 ft | 461 kts | 162° |
| 2026-05-09 06:47 | 25.22613 | 89.17669 | 28309 ft | 459 kts | 162° |
| 2026-05-09 06:47 | 25.19701 | 89.19111 | 28051 ft | 458 kts | 162° |
| 2026-05-09 06:47 | 25.16796 | 89.20548 | 27793 ft | 456 kts | 162° |
| 2026-05-09 06:48 | 25.13908 | 89.21975 | 27530 ft | 455 kts | 162° |
| 2026-05-09 06:48 | 25.11025 | 89.23395 | 27300 ft | 453 kts | 162° |
| 2026-05-09 06:48 | 25.08163 | 89.24805 | 27047 ft | 451 kts | 162° |
| 2026-05-09 06:48 | 25.05287 | 89.26219 | 26794 ft | 450 kts | 162° |
| 2026-05-09 06:49 | 25.02462 | 89.27604 | 26552 ft | 448 kts | 162° |
| 2026-05-09 06:49 | 24.99625 | 89.28993 | 26312 ft | 447 kts | 162° |
| 2026-05-09 06:49 | 24.96776 | 89.30388 | 26069 ft | 446 kts | 162° |
| 2026-05-09 06:49 | 24.93951 | 89.31775 | 25834 ft | 444 kts | 161° |
| 2026-05-09 06:50 | 24.91129 | 89.33163 | 25599 ft | 443 kts | 161° |
| 2026-05-09 06:50 | 24.88319 | 89.34543 | 25363 ft | 441 kts | 161° |
| 2026-05-09 06:50 | 24.85519 | 89.35915 | 25130 ft | 440 kts | 161° |
| 2026-05-09 06:50 | 24.82721 | 89.37285 | 24900 ft | 439 kts | 161° |
| 2026-05-09 06:51 | 24.79940 | 89.38650 | 24669 ft | 438 kts | 161° |
| 2026-05-09 06:51 | 24.77151 | 89.40022 | 24436 ft | 436 kts | 161° |
| 2026-05-09 06:51 | 24.74384 | 89.41380 | 24217 ft | 435 kts | 161° |
| 2026-05-09 06:51 | 24.71617 | 89.42735 | 23995 ft | 434 kts | 161° |
| 2026-05-09 06:52 | 24.68865 | 89.44079 | 23779 ft | 433 kts | 161° |
| 2026-05-09 06:52 | 24.66118 | 89.45419 | 23553 ft | 432 kts | 161° |
| 2026-05-09 06:52 | 24.63377 | 89.46760 | 23307 ft | 431 kts | 161° |
| 2026-05-09 06:52 | 24.60639 | 89.48098 | 23040 ft | 429 kts | 161° |
| 2026-05-09 06:53 | 24.57921 | 89.49423 | 22773 ft | 427 kts | 161° |
| 2026-05-09 06:53 | 24.55214 | 89.50741 | 22516 ft | 425 kts | 160° |
| 2026-05-09 06:53 | 24.52514 | 89.52060 | 22268 ft | 423 kts | 160° |
| 2026-05-09 06:53 | 24.49830 | 89.53374 | 22009 ft | 421 kts | 160° |
| 2026-05-09 06:54 | 24.47162 | 89.54676 | 21753 ft | 420 kts | 160° |
| 2026-05-09 06:54 | 24.44524 | 89.55962 | 21505 ft | 418 kts | 160° |
| 2026-05-09 06:54 | 24.42736 | 89.56834 | 21338 ft | 416 kts | 160° |
| 2026-05-09 06:54 | 24.39200 | 89.58559 | 21008 ft | 414 kts | 160° |
| 2026-05-09 06:55 | 24.36621 | 89.59841 | 20769 ft | 414 kts | 157° |
| 2026-05-09 06:55 | 24.34172 | 89.61516 | 20411 ft | 417 kts | 146° |
| 2026-05-09 06:55 | 24.32050 | 89.63679 | 20028 ft | 419 kts | 135° |
| 2026-05-09 06:55 | 24.30306 | 89.66240 | 19652 ft | 419 kts | 127° |
| 2026-05-09 06:56 | 24.29192 | 89.68020 | 19397 ft | 417 kts | 127° |
| 2026-05-09 06:56 | 24.27018 | 89.71468 | 18910 ft | 413 kts | 128° |
| 2026-05-09 06:56 | 24.25934 | 89.73178 | 18672 ft | 411 kts | 128° |
| 2026-05-09 06:56 | 24.23758 | 89.76598 | 18189 ft | 407 kts | 128° |
| 2026-05-09 06:57 | 24.22686 | 89.78281 | 17916 ft | 406 kts | 128° |
| 2026-05-09 06:57 | 24.21074 | 89.80809 | 17507 ft | 403 kts | 128° |
| 2026-05-09 06:57 | 24.19479 | 89.83308 | 17100 ft | 400 kts | 128° |
| 2026-05-09 06:57 | 24.17881 | 89.85819 | 16686 ft | 398 kts | 127° |
| 2026-05-09 06:58 | 24.16312 | 89.88296 | 16286 ft | 395 kts | 127° |
| 2026-05-09 06:58 | 24.14750 | 89.90761 | 15904 ft | 393 kts | 127° |
| 2026-05-09 06:58 | 24.13196 | 89.93211 | 15515 ft | 390 kts | 127° |
| 2026-05-09 06:58 | 24.11654 | 89.95632 | 15114 ft | 388 kts | 127° |
| 2026-05-09 06:59 | 24.10112 | 89.98044 | 14642 ft | 386 kts | 127° |
| 2026-05-09 06:59 | 24.08572 | 90.00454 | 14178 ft | 383 kts | 127° |
| 2026-05-09 06:59 | 24.07052 | 90.02833 | 13720 ft | 380 kts | 127° |
| 2026-05-09 06:59 | 24.05544 | 90.05195 | 13209 ft | 378 kts | 127° |
| 2026-05-09 07:00 | 24.04051 | 90.07533 | 12702 ft | 374 kts | 127° |
| 2026-05-09 07:00 | 24.02560 | 90.09872 | 12199 ft | 371 kts | 127° |
| 2026-05-09 07:00 | 24.01096 | 90.12165 | 11707 ft | 367 kts | 127° |
| 2026-05-09 07:00 | 23.99640 | 90.14441 | 11360 ft | 360 kts | 127° |
| 2026-05-09 07:01 | 23.98228 | 90.16651 | 11119 ft | 350 kts | 127° |
| 2026-05-09 07:01 | 23.96849 | 90.18810 | 10880 ft | 341 kts | 127° |
| 2026-05-09 07:01 | 23.95501 | 90.20916 | 10642 ft | 334 kts | 127° |
| 2026-05-09 07:01 | 23.94201 | 90.22947 | 10413 ft | 327 kts | 127° |
| 2026-05-09 07:02 | 23.92911 | 90.24957 | 10181 ft | 320 kts | 127° |
| 2026-05-09 07:02 | 23.91628 | 90.26956 | 9940 ft | 313 kts | 127° |
| 2026-05-09 07:02 | 23.90390 | 90.28885 | 9706 ft | 307 kts | 127° |
| 2026-05-09 07:02 | 23.89194 | 90.30750 | 9456 ft | 301 kts | 127° |
| 2026-05-09 07:03 | 23.88007 | 90.32600 | 9202 ft | 294 kts | 127° |
| 2026-05-09 07:03 | 23.86841 | 90.34416 | 8950 ft | 289 kts | 127° |
| 2026-05-09 07:03 | 23.85698 | 90.36199 | 8708 ft | 284 kts | 127° |
| 2026-05-09 07:03 | 23.84582 | 90.37947 | 8457 ft | 279 kts | 125° |
| 2026-05-09 07:04 | 23.83912 | 90.39907 | 8198 ft | 278 kts | 96° |
| 2026-05-09 07:04 | 23.84214 | 90.41963 | 7928 ft | 276 kts | 64° |
| 2026-05-09 07:04 | 23.85399 | 90.43570 | 7686 ft | 272 kts | 34° |
| 2026-05-09 07:04 | 23.87107 | 90.44332 | 7421 ft | 265 kts | 5° |
| 2026-05-09 07:05 | 23.88901 | 90.44117 | 7134 ft | 259 kts | 336° |
| 2026-05-09 07:05 | 23.90363 | 90.43041 | 6853 ft | 253 kts | 309° |
| 2026-05-09 07:05 | 23.91218 | 90.41396 | 6580 ft | 249 kts | 289° |
| 2026-05-09 07:05 | 23.91883 | 90.39659 | 6329 ft | 247 kts | 297° |
| 2026-05-09 07:06 | 23.92907 | 90.38165 | 6086 ft | 245 kts | 313° |
| 2026-05-09 07:06 | 23.94259 | 90.37053 | 5840 ft | 244 kts | 329° |
| 2026-05-09 07:06 | 23.95825 | 90.36365 | 5601 ft | 242 kts | 340° |
| 2026-05-09 07:06 | 23.97410 | 90.35787 | 5368 ft | 238 kts | 340° |
| 2026-05-09 07:07 | 23.98968 | 90.35211 | 5136 ft | 235 kts | 340° |
| 2026-05-09 07:07 | 24.00472 | 90.34539 | 4888 ft | 231 kts | 324° |
| 2026-05-09 07:07 | 24.01475 | 90.33263 | 4647 ft | 219 kts | 293° |
| 2026-05-09 07:07 | 24.01714 | 90.31675 | 4360 ft | 210 kts | 263° |
| 2026-05-09 07:08 | 24.01209 | 90.30214 | 4067 ft | 204 kts | 233° |
| 2026-05-09 07:08 | 24.00158 | 90.29230 | 3811 ft | 197 kts | 206° |
| 2026-05-09 07:08 | 23.98858 | 90.28910 | 3532 ft | 190 kts | 178° |
| 2026-05-09 07:08 | 23.97611 | 90.29261 | 3265 ft | 184 kts | 152° |
| 2026-05-09 07:09 | 23.96567 | 90.30048 | 2939 ft | 182 kts | 143° |
| 2026-05-09 07:09 | 23.95525 | 90.30881 | 2495 ft | 188 kts | 143° |
| 2026-05-09 07:09 | 23.94475 | 90.31718 | 2170 ft | 186 kts | 143° |
| 2026-05-09 07:09 | 23.93441 | 90.32540 | 1908 ft | 181 kts | 143° |
| 2026-05-09 07:10 | 23.92438 | 90.33338 | 1677 ft | 175 kts | 143° |
| 2026-05-09 07:10 | 23.91470 | 90.34107 | 1443 ft | 169 kts | 143° |
| 2026-05-09 07:10 | 23.90561 | 90.34829 | 1247 ft | 153 kts | 143° |
| 2026-05-09 07:10 | 23.89736 | 90.35484 | 1053 ft | 142 kts | 143° |
| 2026-05-09 07:11 | 23.88946 | 90.36112 | 886 ft | 138 kts | 143° |
| 2026-05-09 07:11 | 23.88178 | 90.36723 | 719 ft | 136 kts | 142° |
| 2026-05-09 07:11 | 23.87418 | 90.37327 | 545 ft | 134 kts | 142° |
| 2026-05-09 07:11 | 23.86670 | 90.37923 | 362 ft | 133 kts | 141° |
| 2026-05-09 07:12 | 23.85925 | 90.38516 | 179 ft | 132 kts | 141° |
| 2026-05-09 07:12 | 23.85188 | 90.39100 | 39 ft | 126 kts | 143° |
| 2026-05-09 07:12 | 23.84600 | 90.39571 | 37 ft | 81 kts | 144° |
| 2026-05-09 07:12 | 23.84287 | 90.39818 | 36 ft | 34 kts | 144° |
| 2026-05-09 07:13 | 23.84114 | 90.39979 | 36 ft | 27 kts | 130° |
| 2026-05-09 07:13 | 23.84057 | 90.40074 | 37 ft | 15 kts | 116° |
| 2026-05-09 07:13 | 23.84014 | 90.40182 | 36 ft | 16 kts | 109° |
| 2026-05-09 07:13 | 23.83996 | 90.40267 | 36 ft | 12 kts | 89° |
| 2026-05-09 07:14 | 23.84004 | 90.40362 | 36 ft | 14 kts | 77° |
| 2026-05-09 07:14 | 23.84047 | 90.40459 | 36 ft | 15 kts | 54° |
| 2026-05-09 07:14 | 23.84114 | 90.40556 | 36 ft | 14 kts | 52° |
| 2026-05-09 07:14 | 23.84174 | 90.40574 | 36 ft | 10 kts | 338° |
| 2026-05-09 07:15 | 23.84237 | 90.40524 | 36 ft | 12 kts | 324° |
| 2026-05-09 07:15 | 23.84312 | 90.40464 | 36 ft | 14 kts | 323° |
| 2026-05-09 07:15 | 23.84398 | 90.40397 | 36 ft | 16 kts | 324° |
| 2026-05-09 07:15 | 23.84494 | 90.40320 | 36 ft | 18 kts | 323° |
| 2026-05-09 07:16 | 23.84594 | 90.40241 | 36 ft | 10 kts | 324° |
| 2026-05-09 07:16 | 23.84654 | 90.40258 | 36 ft | 11 kts | 54° |
| 2026-05-09 07:16 | 23.84696 | 90.40325 | 36 ft | 8 kts | 71° |
| 2026-05-09 07:16 | 23.84664 | 90.40372 | 35 ft | 9 kts | 144° |
| 2026-05-09 07:17 | 23.84607 | 90.40418 | 35 ft | 11 kts | 144° |
| 2026-05-09 07:17 | 23.84594 | 90.40463 | 36 ft | 6 kts | 62° |
| 2026-05-09 07:17 | 23.84616 | 90.40496 | 36 ft | 6 kts | 54° |
| 2026-05-09 07:17 | 23.84628 | 90.40514 | 36 ft | 1 kts | 53° |
| 2026-05-09 07:18 | 23.84629 | 90.40514 | 36 ft | 0 kts | 53° |